KSLC/SLC METAR and TAF weather

Enter ICAO airport designator
Station Type Date Time Source
KSLC METAR 2019/04/18 09:54 UTC NOAA

KSLC 180954Z 11005KT 10SM FEW065 07/02 A3029 RMK AO2 SLP241 T00670022


Station Type Date Time Source
KSLC Decoded METAR 2019/04/18 09:54 UTC NOAA

SALT LAKE CITY INTERNATIONAL AIRPORT , UT, United States (KSLC) 40-47N 111-58W 1286M
Apr 18, 2019 - 05:54 AM EDT / 2019.04.18 0954 UTC
Wind: from the ESE (110 degrees) at 6 MPH (5 KT):0
Visibility: 10 mile(s):0
Sky conditions: mostly clear
Temperature: 44.1 F (6.7 C)
Dew Point: 36.0 F (2.2 C)
Relative Humidity: 72%
Pressure (altimeter): 30.29 in. Hg (1025 hPa)
ob: KSLC 180954Z 11005KT 10SM FEW065 07/02 A3029 RMK AO2 SLP241 T00670022
cycle: 10

Station Type Date Time Source
KSLC TAF 2019/04/18 09:24 UTC NOAA

TAF
AMD KSLC 180921Z 1809/1912 14005KT P6SM SCT070
FM181800 32006KT P6SM SKC
FM190300 16006KT P6SM SKC

Example: see airport list